sensor_id;sensor_type;location;lat;lon;timestamp;P1;durP1;ratioP1;P2;durP2;ratioP2
70337;SDS011;57757;53.198;19.646;2022-07-29T00:01:41;6.10;;;1.60;;
70337;SDS011;57757;53.198;19.646;2022-07-29T00:04:10;7.30;;;1.60;;
70337;SDS011;57757;53.198;19.646;2022-07-29T00:06:38;8.50;;;1.80;;
70337;SDS011;57757;53.198;19.646;2022-07-29T00:09:06;8.00;;;1.80;;
70337;SDS011;57757;53.198;19.646;2022-07-29T00:11:33;5.90;;;1.60;;
70337;SDS011;57757;53.198;19.646;2022-07-29T00:14:01;6.20;;;1.60;;
70337;SDS011;57757;53.198;19.646;2022-07-29T00:16:28;6.50;;;1.70;;
70337;SDS011;57757;53.198;19.646;2022-07-29T00:18:56;7.30;;;2.00;;
70337;SDS011;57757;53.198;19.646;2022-07-29T00:21:28;7.10;;;1.70;;
70337;SDS011;57757;53.198;19.646;2022-07-29T00:23:56;6.70;;;1.40;;
70337;SDS011;57757;53.198;19.646;2022-07-29T00:26:23;5.10;;;1.50;;
70337;SDS011;57757;53.198;19.646;2022-07-29T00:28:51;5.40;;;1.20;;
70337;SDS011;57757;53.198;19.646;2022-07-29T00:31:19;7.20;;;1.40;;
70337;SDS011;57757;53.198;19.646;2022-07-29T00:33:46;6.50;;;1.40;;
70337;SDS011;57757;53.198;19.646;2022-07-29T00:36:14;5.00;;;1.30;;
70337;SDS011;57757;53.198;19.646;2022-07-29T00:38:41;7.30;;;1.40;;
70337;SDS011;57757;53.198;19.646;2022-07-29T00:41:12;5.30;;;1.30;;
70337;SDS011;57757;53.198;19.646;2022-07-29T00:43:39;4.80;;;1.30;;
70337;SDS011;57757;53.198;19.646;2022-07-29T00:46:07;5.50;;;1.50;;
70337;SDS011;57757;53.198;19.646;2022-07-29T00:48:35;5.70;;;1.50;;
70337;SDS011;57757;53.198;19.646;2022-07-29T00:51:03;5.90;;;1.30;;
70337;SDS011;57757;53.198;19.646;2022-07-29T00:53:32;8.60;;;1.70;;
70337;SDS011;57757;53.198;19.646;2022-07-29T00:56:02;6.00;;;1.60;;
70337;SDS011;57757;53.198;19.646;2022-07-29T00:58:30;6.30;;;1.60;;
70337;SDS011;57757;53.198;19.646;2022-07-29T01:00:58;6.40;;;1.70;;
70337;SDS011;57757;53.198;19.646;2022-07-29T01:03:26;6.20;;;1.50;;
70337;SDS011;57757;53.198;19.646;2022-07-29T01:05:54;5.80;;;1.80;;
70337;SDS011;57757;53.198;19.646;2022-07-29T01:08:22;5.60;;;1.60;;
70337;SDS011;57757;53.198;19.646;2022-07-29T01:10:50;6.40;;;1.40;;
70337;SDS011;57757;53.198;19.646;2022-07-29T01:13:21;5.70;;;1.20;;
70337;SDS011;57757;53.198;19.646;2022-07-29T01:15:56;5.60;;;1.70;;
70337;SDS011;57757;53.198;19.646;2022-07-29T01:18:34;7.30;;;1.40;;
70337;SDS011;57757;53.198;19.646;2022-07-29T01:24:14;7.10;;;1.50;;
70337;SDS011;57757;53.198;19.646;2022-07-29T01:27:11;6.60;;;1.50;;
70337;SDS011;57757;53.198;19.646;2022-07-29T01:29:58;5.90;;;1.30;;
70337;SDS011;57757;53.198;19.646;2022-07-29T01:32:33;6.40;;;1.50;;
70337;SDS011;57757;53.198;19.646;2022-07-29T01:37:39;6.30;;;1.50;;
70337;SDS011;57757;53.198;19.646;2022-07-29T01:40:23;7.20;;;1.40;;
70337;SDS011;57757;53.198;19.646;2022-07-29T01:42:56;5.30;;;1.30;;
70337;SDS011;57757;53.198;19.646;2022-07-29T01:48:12;6.90;;;1.40;;
70337;SDS011;57757;53.198;19.646;2022-07-29T01:50:58;6.80;;;1.30;;
70337;SDS011;57757;53.198;19.646;2022-07-29T01:56:32;5.90;;;1.20;;
70337;SDS011;57757;53.198;19.646;2022-07-29T01:59:03;5.70;;;1.20;;
70337;SDS011;57757;53.198;19.646;2022-07-29T02:01:33;6.60;;;1.40;;
70337;SDS011;57757;53.198;19.646;2022-07-29T02:04:03;7.80;;;1.40;;
70337;SDS011;57757;53.198;19.646;2022-07-29T02:06:33;6.20;;;1.20;;
70337;SDS011;57757;53.198;19.646;2022-07-29T02:09:04;4.90;;;1.30;;
70337;SDS011;57757;53.198;19.646;2022-07-29T02:11:35;6.40;;;2.40;;
70337;SDS011;57757;53.198;19.646;2022-07-29T02:14:05;6.30;;;1.40;;
70337;SDS011;57757;53.198;19.646;2022-07-29T02:16:35;7.20;;;1.40;;
70337;SDS011;57757;53.198;19.646;2022-07-29T02:19:05;5.40;;;1.50;;
70337;SDS011;57757;53.198;19.646;2022-07-29T02:21:35;5.80;;;1.30;;
70337;SDS011;57757;53.198;19.646;2022-07-29T02:24:03;6.30;;;1.30;;
70337;SDS011;57757;53.198;19.646;2022-07-29T02:26:32;5.40;;;1.50;;
70337;SDS011;57757;53.198;19.646;2022-07-29T02:29:01;6.50;;;1.40;;
70337;SDS011;57757;53.198;19.646;2022-07-29T02:31:31;6.10;;;1.50;;
70337;SDS011;57757;53.198;19.646;2022-07-29T02:34:02;5.20;;;1.50;;
70337;SDS011;57757;53.198;19.646;2022-07-29T02:36:32;6.30;;;1.40;;
70337;SDS011;57757;53.198;19.646;2022-07-29T02:39:01;7.40;;;1.50;;
70337;SDS011;57757;53.198;19.646;2022-07-29T02:41:33;5.30;;;1.40;;
70337;SDS011;57757;53.198;19.646;2022-07-29T02:44:25;5.40;;;1.20;;
70337;SDS011;57757;53.198;19.646;2022-07-29T02:52:31;5.10;;;1.40;;
70337;SDS011;57757;53.198;19.646;2022-07-29T02:57:41;5.20;;;1.60;;
70337;SDS011;57757;53.198;19.646;2022-07-29T03:00:27;5.60;;;1.60;;
70337;SDS011;57757;53.198;19.646;2022-07-29T03:02:58;5.80;;;1.50;;
70337;SDS011;57757;53.198;19.646;2022-07-29T03:05:29;5.80;;;1.20;;
70337;SDS011;57757;53.198;19.646;2022-07-29T03:08:01;10.80;;;2.20;;
70337;SDS011;57757;53.198;19.646;2022-07-29T03:10:31;7.30;;;1.60;;
70337;SDS011;57757;53.198;19.646;2022-07-29T03:13:00;5.40;;;1.20;;
70337;SDS011;57757;53.198;19.646;2022-07-29T03:15:28;7.00;;;1.30;;
70337;SDS011;57757;53.198;19.646;2022-07-29T03:17:56;5.40;;;1.10;;
70337;SDS011;57757;53.198;19.646;2022-07-29T03:20:25;6.00;;;1.20;;
70337;SDS011;57757;53.198;19.646;2022-07-29T03:22:53;6.20;;;1.30;;
70337;SDS011;57757;53.198;19.646;2022-07-29T03:25:21;5.00;;;0.90;;
70337;SDS011;57757;53.198;19.646;2022-07-29T03:27:48;5.10;;;1.10;;
70337;SDS011;57757;53.198;19.646;2022-07-29T03:30:16;6.10;;;1.10;;
70337;SDS011;57757;53.198;19.646;2022-07-29T03:32:49;6.00;;;1.30;;
70337;SDS011;57757;53.198;19.646;2022-07-29T03:35:21;5.00;;;1.20;;
70337;SDS011;57757;53.198;19.646;2022-07-29T03:37:49;5.10;;;1.10;;
70337;SDS011;57757;53.198;19.646;2022-07-29T03:40:19;5.90;;;1.20;;
70337;SDS011;57757;53.198;19.646;2022-07-29T03:42:53;5.30;;;0.90;;
70337;SDS011;57757;53.198;19.646;2022-07-29T03:45:22;4.70;;;1.00;;
70337;SDS011;57757;53.198;19.646;2022-07-29T03:47:53;4.70;;;1.10;;
70337;SDS011;57757;53.198;19.646;2022-07-29T03:50:28;5.20;;;1.00;;
70337;SDS011;57757;53.198;19.646;2022-07-29T03:52:57;5.30;;;1.00;;
70337;SDS011;57757;53.198;19.646;2022-07-29T03:55:26;5.10;;;1.00;;
70337;SDS011;57757;53.198;19.646;2022-07-29T03:57:56;4.50;;;1.20;;
70337;SDS011;57757;53.198;19.646;2022-07-29T04:00:25;5.00;;;1.10;;
70337;SDS011;57757;53.198;19.646;2022-07-29T04:02:54;6.90;;;1.10;;
70337;SDS011;57757;53.198;19.646;2022-07-29T04:05:22;7.90;;;1.10;;
70337;SDS011;57757;53.198;19.646;2022-07-29T04:07:50;4.80;;;0.80;;
70337;SDS011;57757;53.198;19.646;2022-07-29T04:10:18;5.50;;;0.70;;
70337;SDS011;57757;53.198;19.646;2022-07-29T04:12:58;5.10;;;0.80;;
70337;SDS011;57757;53.198;19.646;2022-07-29T04:15:26;5.10;;;0.90;;
70337;SDS011;57757;53.198;19.646;2022-07-29T04:17:58;5.10;;;0.90;;
70337;SDS011;57757;53.198;19.646;2022-07-29T04:20:26;13.50;;;5.80;;
70337;SDS011;57757;53.198;19.646;2022-07-29T04:22:54;11.10;;;2.90;;
70337;SDS011;57757;53.198;19.646;2022-07-29T04:25:21;9.80;;;1.40;;
70337;SDS011;57757;53.198;19.646;2022-07-29T04:27:49;10.00;;;3.50;;
70337;SDS011;57757;53.198;19.646;2022-07-29T04:30:33;5.50;;;1.50;;
70337;SDS011;57757;53.198;19.646;2022-07-29T04:33:02;8.20;;;1.60;;
70337;SDS011;57757;53.198;19.646;2022-07-29T04:35:36;4.60;;;0.90;;
70337;SDS011;57757;53.198;19.646;2022-07-29T04:38:15;4.60;;;0.90;;
70337;SDS011;57757;53.198;19.646;2022-07-29T04:40:43;6.50;;;1.90;;
70337;SDS011;57757;53.198;19.646;2022-07-29T04:43:11;5.00;;;1.00;;
70337;SDS011;57757;53.198;19.646;2022-07-29T04:45:41;6.20;;;0.80;;
70337;SDS011;57757;53.198;19.646;2022-07-29T04:48:09;4.30;;;0.80;;
70337;SDS011;57757;53.198;19.646;2022-07-29T04:50:40;5.20;;;0.80;;
70337;SDS011;57757;53.198;19.646;2022-07-29T04:53:08;5.60;;;0.90;;
70337;SDS011;57757;53.198;19.646;2022-07-29T04:55:35;7.40;;;1.20;;
70337;SDS011;57757;53.198;19.646;2022-07-29T04:58:05;4.30;;;0.80;;
70337;SDS011;57757;53.198;19.646;2022-07-29T05:00:33;7.20;;;1.30;;
70337;SDS011;57757;53.198;19.646;2022-07-29T05:03:01;4.10;;;0.90;;
70337;SDS011;57757;53.198;19.646;2022-07-29T05:05:29;12.90;;;1.50;;
70337;SDS011;57757;53.198;19.646;2022-07-29T05:07:57;4.20;;;0.70;;
70337;SDS011;57757;53.198;19.646;2022-07-29T05:10:24;6.80;;;0.70;;
70337;SDS011;57757;53.198;19.646;2022-07-29T05:12:52;5.10;;;0.90;;
70337;SDS011;57757;53.198;19.646;2022-07-29T05:15:20;4.60;;;0.70;;
70337;SDS011;57757;53.198;19.646;2022-07-29T05:17:47;4.60;;;0.90;;
70337;SDS011;57757;53.198;19.646;2022-07-29T05:20:14;4.00;;;0.60;;
70337;SDS011;57757;53.198;19.646;2022-07-29T05:22:42;5.00;;;0.80;;
70337;SDS011;57757;53.198;19.646;2022-07-29T05:25:10;4.10;;;0.60;;
70337;SDS011;57757;53.198;19.646;2022-07-29T05:27:37;3.70;;;0.60;;
70337;SDS011;57757;53.198;19.646;2022-07-29T05:30:05;4.00;;;0.50;;
70337;SDS011;57757;53.198;19.646;2022-07-29T05:32:33;5.00;;;0.80;;
70337;SDS011;57757;53.198;19.646;2022-07-29T05:35:00;5.20;;;0.70;;
70337;SDS011;57757;53.198;19.646;2022-07-29T05:37:28;4.50;;;0.70;;
70337;SDS011;57757;53.198;19.646;2022-07-29T05:39:55;4.00;;;0.70;;
70337;SDS011;57757;53.198;19.646;2022-07-29T05:42:25;4.00;;;0.70;;
70337;SDS011;57757;53.198;19.646;2022-07-29T05:44:53;5.00;;;0.70;;
70337;SDS011;57757;53.198;19.646;2022-07-29T05:47:21;4.30;;;0.60;;
70337;SDS011;57757;53.198;19.646;2022-07-29T05:49:49;4.50;;;0.70;;
70337;SDS011;57757;53.198;19.646;2022-07-29T05:52:18;7.10;;;0.80;;
70337;SDS011;57757;53.198;19.646;2022-07-29T05:54:46;6.00;;;0.70;;
70337;SDS011;57757;53.198;19.646;2022-07-29T05:57:17;7.40;;;1.40;;
70337;SDS011;57757;53.198;19.646;2022-07-29T05:59:46;3.30;;;0.60;;
70337;SDS011;57757;53.198;19.646;2022-07-29T06:02:14;5.70;;;0.60;;
70337;SDS011;57757;53.198;19.646;2022-07-29T06:04:42;5.20;;;0.70;;
70337;SDS011;57757;53.198;19.646;2022-07-29T06:07:10;5.20;;;0.80;;
70337;SDS011;57757;53.198;19.646;2022-07-29T06:09:38;5.20;;;0.50;;
70337;SDS011;57757;53.198;19.646;2022-07-29T06:12:06;4.80;;;0.70;;
70337;SDS011;57757;53.198;19.646;2022-07-29T06:14:33;6.80;;;1.00;;
70337;SDS011;57757;53.198;19.646;2022-07-29T06:17:02;5.70;;;1.10;;
70337;SDS011;57757;53.198;19.646;2022-07-29T06:19:30;4.00;;;0.50;;
70337;SDS011;57757;53.198;19.646;2022-07-29T06:21:57;5.50;;;1.10;;
70337;SDS011;57757;53.198;19.646;2022-07-29T06:24:25;5.60;;;0.70;;
70337;SDS011;57757;53.198;19.646;2022-07-29T06:26:52;6.50;;;1.10;;
70337;SDS011;57757;53.198;19.646;2022-07-29T06:29:20;7.10;;;0.80;;
70337;SDS011;57757;53.198;19.646;2022-07-29T06:31:47;3.90;;;0.60;;
70337;SDS011;57757;53.198;19.646;2022-07-29T06:34:15;5.70;;;0.80;;
70337;SDS011;57757;53.198;19.646;2022-07-29T06:36:44;4.80;;;0.60;;
70337;SDS011;57757;53.198;19.646;2022-07-29T06:39:12;4.40;;;0.70;;
70337;SDS011;57757;53.198;19.646;2022-07-29T06:41:39;7.00;;;0.70;;
70337;SDS011;57757;53.198;19.646;2022-07-29T06:44:07;4.90;;;0.60;;
70337;SDS011;57757;53.198;19.646;2022-07-29T06:46:34;5.60;;;0.80;;
70337;SDS011;57757;53.198;19.646;2022-07-29T06:49:03;6.20;;;0.80;;
70337;SDS011;57757;53.198;19.646;2022-07-29T06:51:31;5.00;;;0.60;;
70337;SDS011;57757;53.198;19.646;2022-07-29T06:53:59;5.00;;;0.70;;
70337;SDS011;57757;53.198;19.646;2022-07-29T06:56:30;6.00;;;0.80;;
70337;SDS011;57757;53.198;19.646;2022-07-29T06:59:07;4.00;;;0.70;;
70337;SDS011;57757;53.198;19.646;2022-07-29T07:01:36;6.30;;;0.70;;
70337;SDS011;57757;53.198;19.646;2022-07-29T07:04:05;4.30;;;0.80;;
70337;SDS011;57757;53.198;19.646;2022-07-29T07:06:32;3.80;;;0.60;;
70337;SDS011;57757;53.198;19.646;2022-07-29T07:09:00;4.70;;;0.60;;
70337;SDS011;57757;53.198;19.646;2022-07-29T07:11:28;5.20;;;0.70;;
70337;SDS011;57757;53.198;19.646;2022-07-29T07:13:56;7.00;;;1.00;;
70337;SDS011;57757;53.198;19.646;2022-07-29T07:16:29;5.60;;;0.70;;
70337;SDS011;57757;53.198;19.646;2022-07-29T07:18:59;5.20;;;0.70;;
70337;SDS011;57757;53.198;19.646;2022-07-29T07:21:27;4.10;;;0.60;;
70337;SDS011;57757;53.198;19.646;2022-07-29T07:23:57;5.20;;;0.90;;
70337;SDS011;57757;53.198;19.646;2022-07-29T07:26:25;4.60;;;0.90;;
70337;SDS011;57757;53.198;19.646;2022-07-29T07:28:54;4.40;;;0.90;;
70337;SDS011;57757;53.198;19.646;2022-07-29T07:31:21;6.20;;;0.80;;
70337;SDS011;57757;53.198;19.646;2022-07-29T07:33:49;3.60;;;0.70;;
70337;SDS011;57757;53.198;19.646;2022-07-29T07:36:16;4.80;;;0.80;;
70337;SDS011;57757;53.198;19.646;2022-07-29T07:38:44;4.90;;;0.70;;
70337;SDS011;57757;53.198;19.646;2022-07-29T07:41:12;6.20;;;1.00;;
70337;SDS011;57757;53.198;19.646;2022-07-29T07:43:39;5.10;;;0.80;;
70337;SDS011;57757;53.198;19.646;2022-07-29T07:46:07;5.60;;;0.90;;
70337;SDS011;57757;53.198;19.646;2022-07-29T07:48:35;5.90;;;1.00;;
70337;SDS011;57757;53.198;19.646;2022-07-29T07:51:03;5.40;;;0.90;;
70337;SDS011;57757;53.198;19.646;2022-07-29T07:53:31;7.40;;;1.50;;
70337;SDS011;57757;53.198;19.646;2022-07-29T07:55:59;6.90;;;1.00;;
70337;SDS011;57757;53.198;19.646;2022-07-29T07:58:37;6.10;;;1.50;;
70337;SDS011;57757;53.198;19.646;2022-07-29T08:01:05;9.00;;;2.10;;
70337;SDS011;57757;53.198;19.646;2022-07-29T08:03:33;6.30;;;0.80;;
70337;SDS011;57757;53.198;19.646;2022-07-29T08:06:02;7.30;;;2.00;;
70337;SDS011;57757;53.198;19.646;2022-07-29T08:08:30;6.70;;;1.60;;
70337;SDS011;57757;53.198;19.646;2022-07-29T08:10:58;4.70;;;0.90;;
70337;SDS011;57757;53.198;19.646;2022-07-29T08:13:31;4.70;;;0.80;;
70337;SDS011;57757;53.198;19.646;2022-07-29T08:16:00;8.90;;;1.60;;
70337;SDS011;57757;53.198;19.646;2022-07-29T08:18:29;8.70;;;1.60;;
70337;SDS011;57757;53.198;19.646;2022-07-29T08:20:58;6.70;;;1.70;;
70337;SDS011;57757;53.198;19.646;2022-07-29T08:23:26;5.80;;;1.10;;
70337;SDS011;57757;53.198;19.646;2022-07-29T08:26:13;7.40;;;0.90;;
70337;SDS011;57757;53.198;19.646;2022-07-29T08:28:41;4.70;;;0.90;;
70337;SDS011;57757;53.198;19.646;2022-07-29T08:31:13;11.90;;;2.50;;
70337;SDS011;57757;53.198;19.646;2022-07-29T08:33:41;7.80;;;1.50;;
70337;SDS011;57757;53.198;19.646;2022-07-29T08:36:09;5.90;;;1.20;;
70337;SDS011;57757;53.198;19.646;2022-07-29T08:38:37;4.50;;;0.80;;
70337;SDS011;57757;53.198;19.646;2022-07-29T08:41:04;5.50;;;1.00;;
70337;SDS011;57757;53.198;19.646;2022-07-29T08:43:33;6.50;;;1.20;;
70337;SDS011;57757;53.198;19.646;2022-07-29T08:46:04;5.30;;;1.10;;
70337;SDS011;57757;53.198;19.646;2022-07-29T08:48:31;6.10;;;1.00;;
70337;SDS011;57757;53.198;19.646;2022-07-29T08:51:00;5.20;;;1.20;;
70337;SDS011;57757;53.198;19.646;2022-07-29T08:53:30;6.90;;;2.10;;
70337;SDS011;57757;53.198;19.646;2022-07-29T08:55:59;12.90;;;5.00;;
70337;SDS011;57757;53.198;19.646;2022-07-29T08:58:31;9.50;;;2.50;;
70337;SDS011;57757;53.198;19.646;2022-07-29T09:01:04;4.50;;;1.00;;
70337;SDS011;57757;53.198;19.646;2022-07-29T09:03:40;10.90;;;1.60;;
70337;SDS011;57757;53.198;19.646;2022-07-29T09:06:08;7.20;;;1.30;;
70337;SDS011;57757;53.198;19.646;2022-07-29T09:08:40;4.70;;;0.90;;
70337;SDS011;57757;53.198;19.646;2022-07-29T09:11:09;5.20;;;1.20;;
70337;SDS011;57757;53.198;19.646;2022-07-29T09:13:39;5.40;;;1.10;;
70337;SDS011;57757;53.198;19.646;2022-07-29T09:16:07;6.80;;;1.20;;
70337;SDS011;57757;53.198;19.646;2022-07-29T09:18:40;5.40;;;1.00;;
70337;SDS011;57757;53.198;19.646;2022-07-29T09:21:10;6.10;;;1.10;;
70337;SDS011;57757;53.198;19.646;2022-07-29T09:23:59;4.90;;;1.10;;
70337;SDS011;57757;53.198;19.646;2022-07-29T09:26:43;6.00;;;1.00;;
70337;SDS011;57757;53.198;19.646;2022-07-29T09:29:16;8.40;;;1.30;;
70337;SDS011;57757;53.198;19.646;2022-07-29T09:31:46;6.80;;;1.30;;
70337;SDS011;57757;53.198;19.646;2022-07-29T09:34:16;6.40;;;1.40;;
70337;SDS011;57757;53.198;19.646;2022-07-29T09:36:49;5.20;;;1.20;;
70337;SDS011;57757;53.198;19.646;2022-07-29T09:42:03;6.50;;;1.40;;
70337;SDS011;57757;53.198;19.646;2022-07-29T09:47:17;6.50;;;1.50;;
70337;SDS011;57757;53.198;19.646;2022-07-29T09:52:29;8.10;;;2.40;;
70337;SDS011;57757;53.198;19.646;2022-07-29T09:55:06;7.70;;;2.30;;
70337;SDS011;57757;53.198;19.646;2022-07-29T09:57:35;12.10;;;3.30;;
70337;SDS011;57757;53.198;19.646;2022-07-29T10:00:07;6.60;;;2.00;;
70337;SDS011;57757;53.198;19.646;2022-07-29T10:02:39;6.50;;;1.60;;
70337;SDS011;57757;53.198;19.646;2022-07-29T10:08:03;7.20;;;2.00;;
70337;SDS011;57757;53.198;19.646;2022-07-29T10:10:32;6.60;;;1.50;;
70337;SDS011;57757;53.198;19.646;2022-07-29T10:13:02;5.30;;;1.40;;
70337;SDS011;57757;53.198;19.646;2022-07-29T10:15:39;6.70;;;1.30;;
70337;SDS011;57757;53.198;19.646;2022-07-29T10:18:11;4.80;;;1.40;;
70337;SDS011;57757;53.198;19.646;2022-07-29T10:20:44;9.50;;;4.30;;
70337;SDS011;57757;53.198;19.646;2022-07-29T10:23:12;6.60;;;1.60;;
70337;SDS011;57757;53.198;19.646;2022-07-29T10:25:41;5.70;;;1.80;;
70337;SDS011;57757;53.198;19.646;2022-07-29T10:28:12;5.50;;;1.40;;
70337;SDS011;57757;53.198;19.646;2022-07-29T10:30:43;6.30;;;1.60;;
70337;SDS011;57757;53.198;19.646;2022-07-29T10:44:35;6.00;;;1.60;;
70337;SDS011;57757;53.198;19.646;2022-07-29T10:47:08;6.10;;;1.40;;
70337;SDS011;57757;53.198;19.646;2022-07-29T10:58:17;5.00;;;1.50;;
70337;SDS011;57757;53.198;19.646;2022-07-29T11:00:51;7.30;;;1.60;;
70337;SDS011;57757;53.198;19.646;2022-07-29T11:06:23;6.00;;;1.60;;
70337;SDS011;57757;53.198;19.646;2022-07-29T11:11:52;6.40;;;1.30;;
70337;SDS011;57757;53.198;19.646;2022-07-29T11:17:22;6.70;;;1.90;;
70337;SDS011;57757;53.198;19.646;2022-07-29T11:19:51;5.00;;;1.40;;
70337;SDS011;57757;53.198;19.646;2022-07-29T11:25:17;4.60;;;1.30;;
70337;SDS011;57757;53.198;19.646;2022-07-29T11:28:10;4.40;;;1.20;;
70337;SDS011;57757;53.198;19.646;2022-07-29T11:30:52;7.30;;;1.50;;
70337;SDS011;57757;53.198;19.646;2022-07-29T11:36:19;5.40;;;1.20;;
70337;SDS011;57757;53.198;19.646;2022-07-29T11:39:24;5.50;;;1.30;;
70337;SDS011;57757;53.198;19.646;2022-07-29T11:47:58;6.80;;;1.60;;
70337;SDS011;57757;53.198;19.646;2022-07-29T11:50:46;6.30;;;1.50;;
70337;SDS011;57757;53.198;19.646;2022-07-29T11:53:14;6.60;;;1.70;;
70337;SDS011;57757;53.198;19.646;2022-07-29T11:55:43;7.20;;;1.50;;
70337;SDS011;57757;53.198;19.646;2022-07-29T11:58:31;5.30;;;1.50;;
70337;SDS011;57757;53.198;19.646;2022-07-29T12:00:58;5.30;;;1.60;;
70337;SDS011;57757;53.198;19.646;2022-07-29T12:03:31;6.40;;;1.60;;
70337;SDS011;57757;53.198;19.646;2022-07-29T12:06:03;5.00;;;1.50;;
70337;SDS011;57757;53.198;19.646;2022-07-29T12:08:43;5.20;;;1.50;;
70337;SDS011;57757;53.198;19.646;2022-07-29T12:11:15;7.70;;;1.70;;
70337;SDS011;57757;53.198;19.646;2022-07-29T12:13:48;6.10;;;1.50;;
70337;SDS011;57757;53.198;19.646;2022-07-29T12:16:18;6.70;;;1.50;;
70337;SDS011;57757;53.198;19.646;2022-07-29T12:19:04;5.40;;;1.60;;
70337;SDS011;57757;53.198;19.646;2022-07-29T12:21:43;6.10;;;1.40;;
70337;SDS011;57757;53.198;19.646;2022-07-29T12:24:23;6.40;;;1.70;;
70337;SDS011;57757;53.198;19.646;2022-07-29T12:26:54;5.90;;;1.50;;
70337;SDS011;57757;53.198;19.646;2022-07-29T12:29:24;5.30;;;1.70;;
70337;SDS011;57757;53.198;19.646;2022-07-29T12:32:01;5.10;;;1.90;;
70337;SDS011;57757;53.198;19.646;2022-07-29T12:34:31;4.80;;;1.40;;
70337;SDS011;57757;53.198;19.646;2022-07-29T12:36:59;6.00;;;1.70;;
70337;SDS011;57757;53.198;19.646;2022-07-29T12:39:28;9.70;;;1.60;;
70337;SDS011;57757;53.198;19.646;2022-07-29T12:41:55;5.60;;;1.80;;
70337;SDS011;57757;53.198;19.646;2022-07-29T12:47:16;7.10;;;1.60;;
70337;SDS011;57757;53.198;19.646;2022-07-29T12:49:45;9.20;;;1.50;;
70337;SDS011;57757;53.198;19.646;2022-07-29T12:54:59;6.90;;;2.00;;
70337;SDS011;57757;53.198;19.646;2022-07-29T12:57:28;6.70;;;1.10;;
70337;SDS011;57757;53.198;19.646;2022-07-29T13:02:40;6.60;;;1.50;;
70337;SDS011;57757;53.198;19.646;2022-07-29T13:05:10;5.90;;;1.40;;
70337;SDS011;57757;53.198;19.646;2022-07-29T13:07:39;9.20;;;1.50;;
70337;SDS011;57757;53.198;19.646;2022-07-29T13:10:24;4.80;;;1.50;;
70337;SDS011;57757;53.198;19.646;2022-07-29T13:15:38;5.30;;;1.60;;
70337;SDS011;57757;53.198;19.646;2022-07-29T13:21:09;7.10;;;2.00;;
70337;SDS011;57757;53.198;19.646;2022-07-29T13:23:39;13.60;;;2.20;;
70337;SDS011;57757;53.198;19.646;2022-07-29T13:26:07;7.80;;;2.20;;
70337;SDS011;57757;53.198;19.646;2022-07-29T13:28:37;5.40;;;2.50;;
70337;SDS011;57757;53.198;19.646;2022-07-29T13:31:04;5.90;;;2.50;;
70337;SDS011;57757;53.198;19.646;2022-07-29T13:33:32;6.10;;;2.80;;
70337;SDS011;57757;53.198;19.646;2022-07-29T13:36:00;6.40;;;2.90;;
70337;SDS011;57757;53.198;19.646;2022-07-29T13:38:28;7.00;;;2.60;;
70337;SDS011;57757;53.198;19.646;2022-07-29T13:40:57;6.10;;;3.00;;
70337;SDS011;57757;53.198;19.646;2022-07-29T13:43:25;5.60;;;3.00;;
70337;SDS011;57757;53.198;19.646;2022-07-29T13:45:53;7.40;;;2.70;;
70337;SDS011;57757;53.198;19.646;2022-07-29T13:48:21;9.00;;;3.00;;
70337;SDS011;57757;53.198;19.646;2022-07-29T13:50:48;5.50;;;2.80;;
70337;SDS011;57757;53.198;19.646;2022-07-29T13:53:16;5.00;;;2.70;;
70337;SDS011;57757;53.198;19.646;2022-07-29T13:55:44;8.30;;;3.10;;
70337;SDS011;57757;53.198;19.646;2022-07-29T13:58:12;5.80;;;2.30;;
70337;SDS011;57757;53.198;19.646;2022-07-29T14:00:39;8.70;;;4.30;;
70337;SDS011;57757;53.198;19.646;2022-07-29T14:03:07;6.30;;;3.30;;
70337;SDS011;57757;53.198;19.646;2022-07-29T14:05:34;5.50;;;3.50;;
70337;SDS011;57757;53.198;19.646;2022-07-29T14:08:02;5.90;;;3.60;;
70337;SDS011;57757;53.198;19.646;2022-07-29T14:10:29;6.80;;;4.30;;
70337;SDS011;57757;53.198;19.646;2022-07-29T14:12:57;8.70;;;3.60;;
70337;SDS011;57757;53.198;19.646;2022-07-29T14:15:24;6.30;;;4.10;;
70337;SDS011;57757;53.198;19.646;2022-07-29T14:17:52;5.60;;;4.40;;
70337;SDS011;57757;53.198;19.646;2022-07-29T14:20:19;6.40;;;4.00;;
70337;SDS011;57757;53.198;19.646;2022-07-29T14:22:47;7.40;;;3.90;;
70337;SDS011;57757;53.198;19.646;2022-07-29T14:25:16;5.90;;;3.50;;
70337;SDS011;57757;53.198;19.646;2022-07-29T14:27:47;6.50;;;3.40;;
70337;SDS011;57757;53.198;19.646;2022-07-29T14:30:15;7.10;;;4.30;;
70337;SDS011;57757;53.198;19.646;2022-07-29T14:32:43;7.30;;;4.10;;
70337;SDS011;57757;53.198;19.646;2022-07-29T14:35:10;6.70;;;3.90;;
70337;SDS011;57757;53.198;19.646;2022-07-29T14:37:39;5.90;;;3.90;;
70337;SDS011;57757;53.198;19.646;2022-07-29T14:40:07;7.90;;;4.40;;
70337;SDS011;57757;53.198;19.646;2022-07-29T14:42:36;6.60;;;5.60;;
70337;SDS011;57757;53.198;19.646;2022-07-29T14:45:05;7.10;;;5.50;;
70337;SDS011;57757;53.198;19.646;2022-07-29T14:47:35;6.50;;;4.60;;
70337;SDS011;57757;53.198;19.646;2022-07-29T14:50:03;6.10;;;5.10;;
70337;SDS011;57757;53.198;19.646;2022-07-29T14:52:32;8.50;;;4.40;;
70337;SDS011;57757;53.198;19.646;2022-07-29T14:54:59;6.00;;;4.60;;
70337;SDS011;57757;53.198;19.646;2022-07-29T14:57:27;7.60;;;4.40;;
70337;SDS011;57757;53.198;19.646;2022-07-29T14:59:56;5.50;;;4.10;;
70337;SDS011;57757;53.198;19.646;2022-07-29T15:02:23;5.70;;;3.10;;
70337;SDS011;57757;53.198;19.646;2022-07-29T15:05:11;7.50;;;3.60;;
70337;SDS011;57757;53.198;19.646;2022-07-29T15:07:38;12.00;;;3.80;;
70337;SDS011;57757;53.198;19.646;2022-07-29T15:10:06;6.80;;;3.00;;
70337;SDS011;57757;53.198;19.646;2022-07-29T15:12:34;5.70;;;2.60;;
70337;SDS011;57757;53.198;19.646;2022-07-29T15:15:02;5.20;;;2.60;;
70337;SDS011;57757;53.198;19.646;2022-07-29T15:17:30;7.60;;;2.80;;
70337;SDS011;57757;53.198;19.646;2022-07-29T15:19:57;6.60;;;2.20;;
70337;SDS011;57757;53.198;19.646;2022-07-29T15:22:25;7.60;;;2.80;;
70337;SDS011;57757;53.198;19.646;2022-07-29T15:24:52;6.70;;;2.60;;
70337;SDS011;57757;53.198;19.646;2022-07-29T15:27:21;5.80;;;2.70;;
70337;SDS011;57757;53.198;19.646;2022-07-29T15:29:49;10.70;;;3.40;;
70337;SDS011;57757;53.198;19.646;2022-07-29T15:32:16;9.30;;;3.50;;
70337;SDS011;57757;53.198;19.646;2022-07-29T15:34:44;6.20;;;3.90;;
70337;SDS011;57757;53.198;19.646;2022-07-29T15:37:12;18.30;;;4.50;;
70337;SDS011;57757;53.198;19.646;2022-07-29T15:39:39;5.60;;;4.10;;
70337;SDS011;57757;53.198;19.646;2022-07-29T15:42:07;6.10;;;3.50;;
70337;SDS011;57757;53.198;19.646;2022-07-29T15:44:35;6.30;;;4.60;;
70337;SDS011;57757;53.198;19.646;2022-07-29T15:47:02;9.10;;;5.10;;
70337;SDS011;57757;53.198;19.646;2022-07-29T15:49:30;6.10;;;5.10;;
70337;SDS011;57757;53.198;19.646;2022-07-29T15:52:18;9.00;;;7.30;;
70337;SDS011;57757;53.198;19.646;2022-07-29T15:54:52;8.40;;;6.20;;
70337;SDS011;57757;53.198;19.646;2022-07-29T15:57:21;6.70;;;6.00;;
70337;SDS011;57757;53.198;19.646;2022-07-29T15:59:50;6.50;;;5.60;;
70337;SDS011;57757;53.198;19.646;2022-07-29T16:02:18;6.60;;;5.50;;
70337;SDS011;57757;53.198;19.646;2022-07-29T16:04:46;6.30;;;5.70;;
70337;SDS011;57757;53.198;19.646;2022-07-29T16:07:14;6.30;;;4.80;;
70337;SDS011;57757;53.198;19.646;2022-07-29T16:09:42;7.60;;;6.40;;
70337;SDS011;57757;53.198;19.646;2022-07-29T16:12:17;6.40;;;5.10;;
70337;SDS011;57757;53.198;19.646;2022-07-29T16:14:44;8.40;;;7.00;;
70337;SDS011;57757;53.198;19.646;2022-07-29T16:17:12;6.60;;;5.90;;